Des Moines, IA (50322)

4:37 PM CDT on May 03, 2015 (GMT -0500)
Chipmunk and Squirrel Railroad | | Change Station
CLOSE
Current Station
Personal Weather Station
Location: Urbandale, IA
Elevation: 957 ft
Nearby Weather Stations

Elev 957 ft 41.63 °N, 93.75 °W | Updated 0 second ago

Partly Cloudy
Partly Cloudy
86.3 °F
Feels Like 87 °F
N
0.0
Wind Variable Wind from South
Gusts 16.0 mph

Today
High -- | Low -- °F
--% Chance of Precip.
Yesterday
High -- | Low -- °F
Precip. -- in
6:09 AM 8:14 PM
Full, 100% visible
Pressure 29.76 in
Visibility 10.0 miles
Clouds Few 5500 ft
Few 12000 ft
Scattered Clouds 26000 ft
Heat Index 87 °F
Dew Point 62 °F
Humidity 44%
Rainfall 0.02 in
Snow Depth Not available.
UV 5 out of 12
Pollen 11.40 out of 12
Air Quality Not available.
Flu Activity Local Activity
METAR KDSM 032054Z 20013G20KT 10SM FEW055 FEW120 SCT260 29/14 A2978 RMK AO2 SLP077 T02890144 58011

More Conditions Fewer Conditions

Pressure 29.76 in
Visibility 10.0 miles
Clouds Few 5500 ft
Few 12000 ft
Scattered Clouds 26000 ft
Heat Index 87 °F
Dew Point 62 °F
Humidity 44%
Rainfall 0.02 in
Snow Depth Not available.
UV 5 out of 12
Pollen 11.40 out of 12
Air Quality Not available.
Flu Activity Local Activity
METAR KDSM 032054Z 20013G20KT 10SM FEW055 FEW120 SCT260 29/14 A2978 RMK AO2 SLP077 T02890144 58011

More Conditions Fewer Conditions

Nepal has a long way to go to dig out and rebuild from a devastating earthquake. We have teamed up with several charities and organizations to make contributing to the relief effort as easy as possible.
How you can help: Portlight Strategies | Red Cross

10-Day Weather Forecast

Almanac

Astronomy

May. 03, 2015 Rise Set
Actual Time
Civil Twilight
Nautical Twilight
Astronomical Twilight
Moon
Length of Visible Light
Length of Day
Tomorrow will be .
, % of the Moon is Illuminated

Today's Extremes

State Highs State Lows

Community

WunderPhotos

Upload Photos

1,818,377 photos uploaded!

WunderBlogs® & News

Nearby

Air Quality

  Air Quality AQ Index Pollutant
Not available.

Snow Depth

Station Depth Elevation

Earthquake Activity

City Distance Mag. Time & Date
Minimum magnitude displayed is 2.5.

Coastal Water Temperatures

Place Temperature

Stations

Nearby Weather Stations

Station Location Temp. Windchill Dew Point Humidity Wind Precip. Elev Updated Type